Time;durP1;ratioP1;P1;durP2;ratioP2;P2;SDS_P1;SDS_P2;PMS_P1;PMS_P2;Temp;Humidity;BMP_temperature;BMP_pressure;BME280_temperature;BME280_humidity;BME280_pressure;Samples;Min_cycle;Max_cycle;Signal;HPM_P1;HPM_P2
2022/12/22 03:26:27;;;;;;;4.35;2.03;;;9.70;99.00;;;;;;6310412;22;20019;-87
2022/12/22 03:28:55;;;;;;;4.32;2.38;;;9.70;99.00;;;;;;6311157;22;20018;-87
2022/12/22 03:31:21;;;;;;;4.80;2.70;;;9.70;99.00;;;;;;6285600;22;20018;-87
2022/12/22 03:33:51;;;;;;;5.07;2.80;;;9.60;99.00;;;;;;6261831;22;20035;-87
2022/12/22 03:36:19;;;;;;;4.35;2.38;;;9.60;99.00;;;;;;6310837;22;20054;-86
2022/12/22 03:38:46;;;;;;;4.65;2.63;;;9.60;99.00;;;;;;6260293;22;20068;-87
2022/12/22 03:46:29;;;;;;;4.25;2.38;;;9.60;99.00;;;;;;6260212;22;20087;-87
2022/12/22 03:46:45;;;;;;;3.42;1.65;;;9.60;99.10;;;;;;6311193;22;20046;-87
2022/12/22 03:49:13;;;;;;;3.88;1.92;;;9.60;99.10;;;;;;6234805;22;20105;-87
2022/12/22 03:51:51;;;;;;;4.18;2.17;;;9.60;99.10;;;;;;6288003;22;20019;-87
2022/12/22 03:54:24;;;;;;;4.22;2.45;;;9.60;99.10;;;;;;6287721;22;20026;-87
2022/12/22 03:56:52;;;;;;;4.53;2.33;;;9.60;99.10;;;;;;6287931;22;20026;-87
2022/12/22 03:59:20;;;;;;;4.63;2.20;;;9.60;99.10;;;;;;6312939;22;20022;-87
2022/12/22 04:01:52;;;;;;;4.47;2.20;;;9.60;99.20;;;;;;6287646;22;20019;-87
2022/12/22 04:04:22;;;;;;;3.50;1.60;;;9.60;99.20;;;;;;6312649;22;20440;-86
2022/12/22 04:06:52;;;;;;;2.97;1.55;;;9.60;99.20;;;;;;6313350;22;20021;-87
2022/12/22 04:09:21;;;;;;;3.80;2.00;;;9.60;99.20;;;;;;6313450;22;20018;-87
2022/12/22 04:14:37;;;;;;;3.50;1.65;;;9.60;99.10;;;;;;6313553;22;20019;-86
2022/12/22 04:17:06;;;;;;;4.00;2.10;;;9.60;99.20;;;;;;6287263;22;20029;-87
2022/12/22 04:19:33;;;;;;;3.15;1.58;;;9.60;99.10;;;;;;6312923;22;20041;-87
2022/12/22 04:22:00;;;;;;;3.97;2.28;;;9.60;99.10;;;;;;6287170;22;20021;-86
2022/12/22 04:24:27;;;;;;;3.95;2.17;;;9.60;99.10;;;;;;6287776;22;20023;-86
2022/12/22 04:26:56;;;;;;;4.13;1.83;;;9.60;99.10;;;;;;6262009;22;20015;-86
2022/12/22 04:29:24;;;;;;;4.13;1.95;;;9.60;99.20;;;;;;6286654;22;20045;-86
2022/12/22 04:31:50;;;;;;;3.78;2.20;;;9.60;99.20;;;;;;6286640;22;20804;-86
2022/12/22 04:34:19;;;;;;;3.95;1.92;;;9.60;99.20;;;;;;6286812;22;20071;-87
2022/12/22 04:36:46;;;;;;;4.68;2.72;;;9.60;99.20;;;;;;6286676;22;20342;-86
2022/12/22 04:39:13;;;;;;;4.20;2.50;;;9.60;99.20;;;;;;6286549;22;20496;-87
2022/12/22 04:41:40;;;;;;;4.18;1.98;;;9.60;99.20;;;;;;6261517;22;20015;-86
2022/12/22 04:44:07;;;;;;;4.35;2.42;;;9.60;99.20;;;;;;6287355;22;20011;-87
2022/12/22 04:46:34;;;;;;;4.25;1.88;;;9.60;99.20;;;;;;6312865;22;20019;-87
2022/12/22 04:49:02;;;;;;;3.72;1.85;;;9.60;99.20;;;;;;6312191;22;20026;-86
2022/12/22 04:51:31;;;;;;;4.47;2.10;;;9.60;99.20;;;;;;6311602;22;20022;-86
2022/12/22 04:53:58;;;;;;;3.25;1.83;;;9.70;99.20;;;;;;6311928;22;20034;-86
2022/12/22 04:56:25;;;;;;;3.85;1.83;;;9.70;99.20;;;;;;6286978;22;20030;-86
2022/12/22 04:58:52;;;;;;;4.68;2.45;;;9.70;99.20;;;;;;6312159;22;20132;-86
2022/12/22 05:01:20;;;;;;;3.72;2.08;;;9.70;99.20;;;;;;6312384;22;20019;-86
2022/12/22 05:03:47;;;;;;;3.28;1.63;;;9.70;99.20;;;;;;6312004;22;20065;-87
2022/12/22 05:06:15;;;;;;;3.95;2.10;;;9.70;99.20;;;;;;6312543;22;20040;-87
2022/12/22 05:08:42;;;;;;;4.28;2.22;;;9.70;99.20;;;;;;6287501;22;20042;-87
2022/12/22 05:11:09;;;;;;;4.45;2.13;;;9.70;99.20;;;;;;6312051;22;20027;-87
2022/12/22 05:13:36;;;;;;;3.60;1.67;;;9.70;99.20;;;;;;6286819;22;20026;-87
2022/12/22 05:16:13;;;;;;;3.85;1.98;;;9.70;99.20;;;;;;6312340;22;20459;-87
2022/12/22 05:18:41;;;;;;;3.50;1.85;;;9.80;99.20;;;;;;6286474;22;20068;-87
2022/12/22 05:21:12;;;;;;;3.95;2.13;;;9.70;99.20;;;;;;6261706;22;20468;-87
2022/12/22 05:23:39;;;;;;;3.97;1.90;;;9.70;99.20;;;;;;6312519;22;20057;-87
2022/12/22 05:26:07;;;;;;;5.90;2.72;;;9.70;99.30;;;;;;6312545;22;20060;-87
2022/12/22 05:28:35;;;;;;;6.15;3.15;;;9.70;99.20;;;;;;6312648;22;20341;-87
2022/12/22 05:31:07;;;;;;;7.03;3.60;;;9.70;99.20;;;;;;6286685;22;20021;-87
2022/12/22 05:33:34;;;;;;;;;;;9.80;99.20;;;;;;6262568;22;20023;-86
2022/12/22 05:36:02;;;;;;;7.35;3.47;;;9.70;99.20;;;;;;6287029;22;20380;-87
2022/12/22 05:38:29;;;;;;;7.88;4.47;;;9.70;99.20;;;;;;6286486;22;20019;-87
2022/12/22 05:40:56;;;;;;;8.98;4.75;;;9.80;99.20;;;;;;6312141;22;20437;-87
2022/12/22 05:43:35;;;;;;;8.93;4.78;;;9.80;99.20;;;;;;6312448;22;20019;-86
2022/12/22 05:46:08;;;;;;;9.77;5.82;;;9.70;99.20;;;;;;6286981;22;20018;-87
2022/12/22 05:48:35;;;;;;;;;;;9.70;99.10;;;;;;6286967;22;20057;-87
2022/12/22 05:51:07;;;;;;;10.10;5.63;;;9.70;99.20;;;;;;6287014;22;19921;-87
2022/12/22 05:53:35;;;;;;;11.75;6.68;;;9.70;99.20;;;;;;6312163;22;20027;-87
2022/12/22 05:56:03;;;;;;;11.55;6.13;;;9.70;99.20;;;;;;6286726;22;20456;-87
2022/12/22 05:58:30;;;;;;;11.60;5.70;;;9.70;99.20;;;;;;6286055;22;20474;-87
2022/12/22 06:00:59;;;;;;;9.93;5.40;;;9.70;99.20;;;;;;6285257;22;20025;-87
2022/12/22 06:03:28;;;;;;;11.77;6.57;;;9.70;99.20;;;;;;6261037;22;20080;-87
2022/12/22 06:05:56;;;;;;;8.60;4.68;;;9.70;99.20;;;;;;6285823;22;20019;-87
2022/12/22 06:08:24;;;;;;;10.38;5.70;;;9.70;99.20;;;;;;6312606;22;20021;-87
2022/12/22 06:10:53;;;;;;;11.15;5.20;;;9.70;99.20;;;;;;6311884;22;20026;-87
2022/12/22 06:13:21;;;;;;;9.63;5.22;;;9.70;99.20;;;;;;6285723;22;20022;-88
2022/12/22 06:15:50;;;;;;;8.18;4.30;;;9.70;99.30;;;;;;6261763;22;20018;-87
2022/12/22 06:18:17;;;;;;;9.60;4.80;;;9.70;99.30;;;;;;6260856;22;20010;-88
2022/12/22 06:20:45;;;;;;;9.77;5.70;;;9.80;99.30;;;;;;6260912;22;20018;-87
2022/12/22 06:23:12;;;;;;;10.90;5.78;;;9.80;99.30;;;;;;6261028;22;20018;-87
2022/12/22 06:25:39;;;;;;;10.55;5.50;;;9.80;99.30;;;;;;6311533;22;20018;-86
2022/12/22 06:28:12;;;;;;;9.45;4.57;;;9.80;99.30;;;;;;6286910;22;20018;-93
2022/12/22 06:30:39;;;;;;;9.10;4.53;;;9.80;99.30;;;;;;6262203;22;20027;-86
2022/12/22 06:33:06;;;;;;;10.77;4.70;;;9.80;99.30;;;;;;6260851;22;20060;-86
2022/12/22 06:35:35;;;;;;;7.78;3.92;;;9.80;99.30;;;;;;6311698;22;20084;-86
2022/12/22 06:38:02;;;;;;;8.73;4.22;;;9.80;99.30;;;;;;6311469;22;20018;-85
2022/12/22 06:40:29;;;;;;;8.65;4.22;;;9.80;99.30;;;;;;6260002;22;20453;-85
2022/12/22 06:43:08;;;;;;;8.90;4.22;;;9.90;99.30;;;;;;6237514;22;20026;-88
2022/12/22 06:45:44;;;;;;;8.23;3.45;;;9.80;99.30;;;;;;6290456;22;20015;-88
2022/12/22 06:48:14;;;;;;;10.75;4.45;;;9.80;99.30;;;;;;6261263;22;20011;-87
2022/12/22 06:51:01;;;;;;;12.55;6.75;;;9.80;99.30;;;;;;6261150;22;20018;-88
2022/12/22 06:53:31;;;;;;;10.65;5.07;;;9.80;99.30;;;;;;6310862;22;20011;-88
2022/12/22 06:55:58;;;;;;;12.73;5.85;;;9.80;99.30;;;;;;6235089;22;20017;-84
2022/12/22 06:58:28;;;;;;;11.10;5.60;;;9.80;99.40;;;;;;6310447;22;20090;-84
2022/12/22 07:00:58;;;;;;;10.00;4.43;;;9.80;99.40;;;;;;6284958;22;20018;-83
2022/12/22 07:03:25;;;;;;;10.07;5.15;;;9.80;99.40;;;;;;6311287;22;20064;-83
2022/12/22 07:05:56;;;;;;;9.80;4.90;;;9.80;99.40;;;;;;6237271;22;20022;-83
2022/12/22 07:08:24;;;;;;;10.32;4.90;;;9.80;99.40;;;;;;6310755;22;20014;-84
2022/12/22 07:11:00;;;;;;;9.57;4.05;;;9.80;99.40;;;;;;6259547;22;20348;-86
2022/12/22 07:13:33;;;;;;;7.63;3.70;;;9.70;99.40;;;;;;6284944;22;20501;-85
2022/12/22 07:16:02;;;;;;;9.20;4.25;;;9.70;99.40;;;;;;6310238;22;20022;-84
2022/12/22 07:18:38;;;;;;;8.30;3.92;;;9.70;99.50;;;;;;6310469;22;20014;-85
2022/12/22 07:21:08;;;;;;;8.07;3.67;;;9.60;99.50;;;;;;6310482;22;20022;-84
2022/12/22 07:23:36;;;;;;;8.18;3.95;;;9.60;99.50;;;;;;6284838;22;20404;-84
2022/12/22 07:26:05;;;;;;;8.38;3.50;;;9.60;99.60;;;;;;6259072;22;20025;-84
2022/12/22 07:28:38;;;;;;;7.38;3.40;;;9.60;99.60;;;;;;6260493;22;20019;-84
2022/12/22 07:31:09;;;;;;;8.93;4.30;;;9.60;99.60;;;;;;6284607;22;20403;-84
2022/12/22 07:33:37;;;;;;;8.43;3.95;;;9.60;99.60;;;;;;6310447;22;20015;-84
2022/12/22 07:36:18;;;;;;;8.90;4.35;;;9.60;99.70;;;;;;6284943;22;20047;-84
2022/12/22 07:38:48;;;;;;;10.05;5.78;;;9.50;99.70;;;;;;6284856;22;20023;-84
2022/12/22 07:44:08;;;;;;;10.27;5.10;;;9.50;99.70;;;;;;6310436;22;20018;-83
2022/12/22 07:46:37;;;;;;;9.45;4.50;;;9.50;99.70;;;;;;6310642;22;20022;-84
2022/12/22 07:51:58;;;;;;;14.15;6.97;;;9.50;99.70;;;;;;6311036;22;20025;-84
2022/12/22 07:54:29;;;;;;;12.73;7.18;;;9.50;99.70;;;;;;6284635;22;20022;-84
2022/12/22 07:56:56;;;;;;;13.25;6.80;;;9.50;99.70;;;;;;6284890;22;20029;-84
2022/12/22 07:59:23;;;;;;;16.90;8.05;;;9.50;99.70;;;;;;6310341;22;20019;-84
2022/12/22 08:01:50;;;;;;;17.58;8.02;;;9.50;99.70;;;;;;6284843;22;20022;-84
2022/12/22 08:04:26;;;;;;;18.00;8.13;;;9.50;99.70;;;;;;6286333;22;20390;-84
2022/12/22 08:06:55;;;;;;;16.23;8.40;;;9.50;99.70;;;;;;6284587;22;20068;-84
2022/12/22 08:09:24;;;;;;;17.98;8.40;;;9.50;99.70;;;;;;6284867;22;20395;-84
2022/12/22 08:12:01;;;;;;;21.73;9.68;;;9.50;99.60;;;;;;6310377;22;20423;-84
2022/12/22 08:14:30;;;;;;;23.17;10.27;;;9.50;99.60;;;;;;6284435;22;20019;-84
2022/12/22 08:16:57;;;;;;;23.75;10.68;;;9.50;99.60;;;;;;6309961;22;20433;-84
2022/12/22 08:19:24;;;;;;;21.90;10.00;;;9.50;99.60;;;;;;6309793;22;20076;-84
2022/12/22 08:21:52;;;;;;;24.33;12.23;;;9.50;99.50;;;;;;6309910;22;20019;-84
2022/12/22 08:24:20;;;;;;;22.20;10.55;;;9.50;99.50;;;;;;6309613;22;20046;-84
2022/12/22 08:26:53;;;;;;;22.85;10.07;;;9.60;99.50;;;;;;6310061;22;20014;-84
2022/12/22 08:29:26;;;;;;;21.52;10.35;;;9.60;99.40;;;;;;6284456;22;20027;-84
2022/12/22 08:31:53;;;;;;;;;;;9.50;99.40;;;;;;6285740;22;20023;-84
2022/12/22 08:34:20;;;;;;;21.00;9.38;;;9.50;99.40;;;;;;6310859;22;19914;-84
2022/12/22 08:36:54;;;;;;;22.05;10.07;;;9.50;99.40;;;;;;6237114;22;20018;-83
2022/12/22 08:39:24;;;;;;;17.25;8.25;;;9.50;99.50;;;;;;6312623;22;20019;-84
2022/12/22 08:41:54;;;;;;;16.23;7.78;;;9.50;99.50;;;;;;6312140;22;20461;-84
2022/12/22 08:44:23;;;;;;;18.52;8.27;;;9.50;99.60;;;;;;6292772;22;20025;-84
2022/12/22 08:46:55;;;;;;;18.27;7.88;;;9.50;99.50;;;;;;6339581;22;20015;-83
2022/12/22 08:49:25;;;;;;;13.80;5.90;;;9.50;99.50;;;;;;6262214;22;20037;-86
2022/12/22 08:51:55;;;;;;;14.23;6.82;;;9.50;99.50;;;;;;6312583;22;20068;-87
2022/12/22 08:54:22;;;;;;;16.65;7.65;;;9.50;99.50;;;;;;6286970;22;20023;-85
2022/12/22 08:56:50;;;;;;;17.60;7.95;;;9.50;99.50;;;;;;6312347;22;20022;-86
2022/12/22 08:59:18;;;;;;;21.10;9.98;;;9.50;99.50;;;;;;6311724;22;20019;-86
2022/12/22 09:01:49;;;;;;;17.35;8.38;;;9.50;99.40;;;;;;6287124;22;20019;-87
2022/12/22 09:04:24;;;;;;;21.58;9.55;;;9.50;99.40;;;;;;6312676;22;20014;-90
2022/12/22 09:06:59;;;;;;;20.67;10.02;;;9.50;99.40;;;;;;6288907;22;20015;-91
2022/12/22 09:10:28;;;;;;;18.55;8.77;;;9.50;99.40;;;;;;6339479;22;20034;-85
2022/12/22 09:13:12;;;;;;;17.88;8.02;;;9.50;99.40;;;;;;6291379;22;20504;-85
2022/12/22 09:15:42;;;;;;;19.77;9.70;;;9.50;99.40;;;;;;6312282;22;20202;-85
2022/12/22 09:18:09;;;;;;;20.02;10.15;;;9.50;99.40;;;;;;6285193;22;20106;-84
2022/12/22 09:20:36;;;;;;;22.55;11.07;;;9.50;99.40;;;;;;6337064;22;20007;-86
2022/12/22 09:23:04;;;;;;;20.90;10.52;;;9.50;99.40;;;;;;6311415;22;20096;-85
2022/12/22 09:25:34;;;;;;;24.23;10.38;;;9.50;99.30;;;;;;6285812;22;20026;-84
2022/12/22 09:28:01;;;;;;;28.73;12.90;;;9.50;99.30;;;;;;6286143;22;20029;-91
2022/12/22 09:30:55;;;;;;;29.60;13.88;;;9.40;99.30;;;;;;6312412;22;20023;-87
2022/12/22 09:38:20;;;;;;;27.35;12.95;;;9.30;99.20;;;;;;6340234;22;20101;-90
2022/12/22 09:40:49;;;;;;;22.50;11.27;;;9.30;99.30;;;;;;6288355;22;20023;-92
2022/12/22 09:43:25;;;;;;;23.05;11.07;;;9.20;99.30;;;;;;6313568;22;20022;-91
2022/12/22 09:45:52;;;;;;;24.60;10.02;;;9.20;99.30;;;;;;6287302;22;20341;-89
2022/12/22 09:48:21;;;;;;;24.83;10.23;;;9.30;99.30;;;;;;6312190;22;20026;-89
2022/12/22 09:50:49;;;;;;;22.83;10.88;;;9.20;99.20;;;;;;6286970;22;20072;-90
2022/12/22 09:53:21;;;;;;;24.38;10.85;;;9.20;99.20;;;;;;6312390;22;20014;-90
2022/12/22 09:55:49;;;;;;;;;;;9.10;99.20;;;;;;6287626;22;20076;-90
2022/12/22 09:58:34;;;;;;;26.92;10.88;;;9.10;99.30;;;;;;6287337;22;19964;-89
2022/12/22 10:01:14;;;;;;;27.48;11.45;;;9.00;99.30;;;;;;6313145;22;20097;-90
2022/12/22 10:03:59;;;;;;;23.60;10.60;;;9.00;99.40;;;;;;6314040;22;20019;-90
2022/12/22 10:06:46;;;;;;;25.90;10.82;;;9.00;99.40;;;;;;6312672;22;20064;-90
2022/12/22 10:09:27;;;;;;;27.45;12.90;;;8.90;99.30;;;;;;6287978;22;20022;-90
2022/12/22 10:12:24;;;;;;;34.42;13.48;;;8.90;99.30;;;;;;6290676;22;20330;-90
2022/12/22 10:14:53;;;;;;;30.25;12.90;;;8.80;99.30;;;;;;6286924;22;20027;-90
2022/12/22 10:17:26;;;;;;;33.13;13.48;;;8.80;99.30;;;;;;6286819;22;20027;-90
2022/12/22 10:20:25;;;;;;;29.25;13.48;;;8.70;99.30;;;;;;6287050;22;20021;-90
2022/12/22 10:23:34;;;;;;;28.85;12.48;;;8.60;99.30;;;;;;6314928;22;20101;-90
2022/12/22 10:26:11;;;;;;;28.10;12.32;;;8.60;99.40;;;;;;6299683;22;20510;-89
2022/12/22 10:29:03;;;;;;;37.80;14.07;;;8.50;99.40;;;;;;6291037;22;20127;-89
2022/12/22 10:31:33;;;;;;;32.28;13.43;;;8.50;99.40;;;;;;6286393;22;20026;-89
2022/12/22 10:34:16;;;;;;;33.53;13.25;;;8.60;99.40;;;;;;6286740;22;20035;-89
2022/12/22 10:36:51;;;;;;;31.20;12.05;;;8.60;99.30;;;;;;6286873;22;20019;-89
2022/12/22 10:39:32;;;;;;;23.98;11.05;;;8.60;99.20;;;;;;6287139;22;20102;-89
2022/12/22 10:42:09;;;;;;;26.52;10.55;;;8.60;99.20;;;;;;6287571;22;20011;-89
2022/12/22 10:44:37;;;;;;;25.00;9.57;;;8.60;99.20;;;;;;6287399;22;20018;-89
2022/12/22 10:47:14;;;;;;;24.35;10.85;;;8.60;99.20;;;;;;6311659;22;20500;-86
2022/12/22 10:49:49;;;;;;;24.75;11.15;;;8.60;99.10;;;;;;6286073;22;20032;-86
2022/12/22 10:52:16;;;;;;;26.23;10.43;;;8.50;99.00;;;;;;6285738;22;20416;-86
2022/12/22 10:54:52;;;;;;;24.67;9.63;;;8.50;99.30;;;;;;6311356;22;20026;-86
2022/12/22 10:57:24;;;;;;;22.02;9.40;;;8.60;98.90;;;;;;6259791;22;20099;-87
2022/12/22 10:59:53;;;;;;;21.33;8.73;;;8.60;98.80;;;;;;6284702;22;20019;-86
2022/12/22 11:02:23;;;;;;;18.00;8.88;;;8.60;98.80;;;;;;6284755;22;20453;-86
2022/12/22 11:04:52;;;;;;;19.33;7.93;;;8.60;98.80;;;;;;6284528;22;20022;-86
2022/12/22 11:07:38;;;;;;;18.83;8.55;;;8.60;98.90;;;;;;6309908;22;20018;-86
2022/12/22 11:10:32;;;;;;;19.00;7.95;;;8.60;98.90;;;;;;6285111;22;20022;-86
2022/12/22 11:13:24;;;;;;;19.57;6.80;;;8.80;98.80;;;;;;6285695;22;20022;-84
2022/12/22 11:15:56;;;;;;;17.35;7.20;;;8.90;98.70;;;;;;6285729;22;20268;-86
2022/12/22 11:18:55;;;;;;;15.85;6.68;;;8.90;98.70;;;;;;6288014;22;20087;-85
2022/12/22 11:22:08;;;;;;;15.95;6.53;;;8.90;98.60;;;;;;6304690;22;20093;-86
2022/12/22 11:25:08;;;;;;;16.23;7.45;;;9.00;98.60;;;;;;6265733;22;20071;-83
2022/12/22 11:27:41;;;;;;;16.95;7.20;;;9.00;98.50;;;;;;6284367;22;20106;-82
2022/12/22 11:30:17;;;;;;;15.95;8.20;;;9.00;98.50;;;;;;6285466;22;20022;-82
2022/12/22 11:33:17;;;;;;;17.75;7.63;;;9.20;98.50;;;;;;6284542;22;20076;-81
2022/12/22 11:35:56;;;;;;;19.48;8.18;;;9.20;98.30;;;;;;6284542;22;20018;-82
2022/12/22 11:38:35;;;;;;;16.00;7.07;;;9.20;98.40;;;;;;6310364;22;20106;-82
2022/12/22 11:41:12;;;;;;;14.18;7.28;;;9.20;98.40;;;;;;6284591;22;20022;-81
2022/12/22 11:43:57;;;;;;;20.33;8.32;;;9.20;98.40;;;;;;6284328;22;20019;-82
2022/12/22 11:47:02;;;;;;;19.67;7.63;;;9.20;98.40;;;;;;6284073;22;20092;-83
2022/12/22 11:49:49;;;;;;;19.25;8.80;;;9.30;98.40;;;;;;6283750;22;20030;-83
2022/12/22 11:52:42;;;;;;;23.88;11.65;;;9.30;98.30;;;;;;6283881;22;20072;-84
2022/12/22 11:55:20;;;;;;;27.17;12.25;;;9.30;98.20;;;;;;6310103;22;20092;-90
2022/12/22 11:58:09;;;;;;;24.13;11.90;;;9.10;98.20;;;;;;6286508;22;20043;-87
2022/12/22 12:00:44;;;;;;;23.20;12.20;;;9.10;98.30;;;;;;6285675;22;20359;-84
2022/12/22 12:04:05;;;;;;;29.27;13.65;;;9.10;98.30;;;;;;6314799;22;20038;-83
2022/12/22 12:07:18;;;;;;;24.15;11.73;;;9.10;98.30;;;;;;6309804;22;20019;-83
2022/12/22 12:10:25;;;;;;;23.15;10.85;;;9.10;98.40;;;;;;6135443;23;20060;-83
2022/12/22 12:13:11;;;;;;;21.63;10.55;;;9.20;98.30;;;;;;6285861;22;20378;-83
2022/12/22 12:15:48;;;;;;;23.88;11.13;;;9.20;98.40;;;;;;6286090;22;20068;-82
2022/12/22 12:18:34;;;;;;;24.05;11.07;;;9.30;98.30;;;;;;6285971;22;20352;-83
2022/12/22 12:21:09;;;;;;;25.42;11.60;;;9.40;98.20;;;;;;6285826;22;20047;-83
2022/12/22 12:24:01;;;;;;;22.38;11.50;;;9.40;98.20;;;;;;6311945;22;20104;-83
2022/12/22 12:26:43;;;;;;;19.42;9.48;;;9.40;98.20;;;;;;6286499;22;20041;-82
2022/12/22 12:29:20;;;;;;;18.40;9.52;;;9.40;98.30;;;;;;6286337;22;20076;-83
2022/12/22 12:32:10;;;;;;;18.13;7.95;;;9.50;98.30;;;;;;6287792;22;20019;-88
2022/12/22 12:34:42;;;;;;;15.32;8.45;;;9.60;98.30;;;;;;6285964;22;20019;-87
2022/12/22 12:37:20;;;;;;;19.83;9.27;;;9.60;98.30;;;;;;6286377;22;20457;-87
2022/12/22 12:40:20;;;;;;;17.52;7.78;;;9.60;98.20;;;;;;6291013;22;20014;-94
2022/12/22 12:42:51;;;;;;;19.35;7.95;;;9.70;98.20;;;;;;6295677;22;20046;-94
2022/12/22 12:45:41;;;;;;;15.40;7.63;;;9.70;98.20;;;;;;6297428;22;20017;-95
2022/12/22 12:48:42;;;;;;;17.45;8.02;;;9.80;98.10;;;;;;6297364;22;20029;-95
2022/12/22 12:51:57;;;;;;;18.42;10.10;;;9.80;98.10;;;;;;6298708;22;20046;-94
2022/12/22 12:54:46;;;;;;;19.05;9.10;;;9.90;98.00;;;;;;6314797;22;20050;-94
2022/12/22 12:57:43;;;;;;;17.30;9.13;;;9.90;97.90;;;;;;6295398;22;20019;-93
2022/12/22 13:00:31;;;;;;;14.35;8.07;;;9.90;97.90;;;;;;6295644;22;20117;-93
2022/12/22 13:03:00;;;;;;;23.25;10.95;;;9.90;97.80;;;;;;6320363;22;20015;-93
2022/12/22 13:05:52;;;;;;;19.02;9.70;;;9.90;97.40;;;;;;6318657;22;20026;-94
2022/12/22 13:08:51;;;;;;;15.68;8.48;;;9.80;97.40;;;;;;6293433;22;20018;-94
2022/12/22 13:11:45;;;;;;;;;;;9.80;97.50;;;;;;6294169;22;20069;-86
2022/12/22 13:15:00;;;;;;;18.52;8.38;;;9.80;97.50;;;;;;6311833;22;19915;-89
2022/12/22 13:17:47;;;;;;;13.73;7.72;;;9.80;97.20;;;;;;6289879;22;20022;-92
2022/12/22 13:20:23;;;;;;;16.88;8.57;;;9.70;97.10;;;;;;6289248;22;20016;-91
2022/12/22 13:22:52;;;;;;;19.35;9.52;;;9.70;97.00;;;;;;6289482;22;20019;-92
2022/12/22 13:25:20;;;;;;;15.95;8.93;;;9.60;96.80;;;;;;6290351;22;20738;-92
2022/12/22 13:28:33;;;;;;;19.52;9.85;;;9.60;96.80;;;;;;6289853;22;20049;-89
2022/12/22 13:32:00;;;;;;;19.00;10.18;;;9.50;96.80;;;;;;6290606;22;20091;-91
2022/12/22 13:35:09;;;;;;;21.33;10.57;;;9.50;96.90;;;;;;6294020;22;20101;-92
2022/12/22 13:38:02;;;;;;;21.30;10.88;;;9.40;96.80;;;;;;6290394;22;20019;-91
2022/12/22 13:41:26;;;;;;;18.30;9.75;;;9.40;96.90;;;;;;6227638;22;20019;-91
2022/12/22 13:49:10;;;;;;;;;;;;;;;;;;;;;
2022/12/22 13:52:21;;;;;;;22.52;12.25;;;9.30;96.90;;;;;;6212414;23;20051;-88
2022/12/22 13:58:04;;;;;;;20.50;11.05;;;9.30;97.00;;;;;;6180561;22;19926;-91
2022/12/22 14:00:39;;;;;;;17.50;9.38;;;9.30;97.00;;;;;;6225756;22;20560;-90
2022/12/22 14:04:00;;;;;;;20.60;10.35;;;9.30;97.10;;;;;;6227221;22;20094;-88
2022/12/22 14:06:59;;;;;;;21.52;11.43;;;9.50;97.10;;;;;;6248914;22;20020;-95
2022/12/22 14:19:26;;;;;;;19.92;10.82;;;9.50;97.00;;;;;;5980312;23;20016;-95
2022/12/22 14:27:03;;;;;;;20.88;11.32;;;9.40;97.10;;;;;;6091324;23;20016;-89
2022/12/22 14:29:34;;;;;;;17.50;9.88;;;9.40;97.10;;;;;;6219820;23;20032;-92
2022/12/22 14:32:03;;;;;;;17.50;10.23;;;9.40;97.20;;;;;;6220964;23;20111;-92
2022/12/22 14:34:37;;;;;;;15.75;9.05;;;9.40;97.20;;;;;;6270754;22;20090;-92
2022/12/22 14:37:10;;;;;;;13.50;7.63;;;9.40;97.30;;;;;;6288599;22;20475;-93
2022/12/22 14:39:50;;;;;;;;;;;;;;;;;;;;;
2022/12/22 14:42:24;;;;;;;10.88;6.40;;;9.40;97.30;;;;;;6313448;22;20448;-94
2022/12/22 14:44:51;;;;;;;15.70;7.50;;;9.40;97.40;;;;;;6287696;22;20109;-94
2022/12/22 14:47:26;;;;;;;14.77;7.53;;;9.50;97.50;;;;;;6287799;22;20544;-93
2022/12/22 14:49:57;;;;;;;14.20;8.27;;;9.50;97.50;;;;;;6269136;22;20023;-93
2022/12/22 14:52:53;;;;;;;15.63;7.63;;;9.50;97.50;;;;;;6258018;22;20015;-93
2022/12/22 14:55:36;;;;;;;12.18;7.00;;;9.40;97.50;;;;;;6253398;22;20015;-86
2022/12/22 14:58:09;;;;;;;13.20;6.68;;;9.40;97.50;;;;;;6254663;22;20102;-88
2022/12/22 15:00:42;;;;;;;11.93;6.88;;;9.50;97.60;;;;;;6255888;22;20015;-88
2022/12/22 15:03:35;;;;;;;12.70;6.65;;;9.40;97.60;;;;;;6255080;22;20094;-87
2022/12/22 15:06:25;;;;;;;11.32;6.55;;;9.50;97.60;;;;;;6254989;22;20445;-86
2022/12/22 15:09:10;;;;;;;12.27;5.97;;;9.50;97.50;;;;;;6254886;22;20019;-86
2022/12/22 15:11:43;;;;;;;12.65;7.15;;;9.40;97.60;;;;;;6254596;22;20106;-89
2022/12/22 15:14:16;;;;;;;11.55;6.03;;;9.40;97.60;;;;;;6255448;22;20023;-88
2022/12/22 15:16:47;;;;;;;10.60;6.03;;;9.40;97.70;;;;;;6281295;22;20026;-88
2022/12/22 15:19:16;;;;;;;11.32;6.80;;;9.40;97.70;;;;;;6255490;22;20046;-89
2022/12/22 15:21:46;;;;;;;11.38;6.22;;;9.30;97.70;;;;;;6255985;22;20069;-88
2022/12/22 15:24:16;;;;;;;13.07;5.93;;;9.30;97.70;;;;;;6255542;22;20019;-88
2022/12/22 15:26:47;;;;;;;13.68;6.90;;;9.30;97.80;;;;;;6280492;22;20050;-87
2022/12/22 15:29:14;;;;;;;12.27;6.50;;;9.30;97.80;;;;;;6254957;22;20045;-88
2022/12/22 15:31:44;;;;;;;9.82;5.97;;;9.30;97.80;;;;;;6255201;22;20102;-92
2022/12/22 15:34:30;;;;;;;12.55;6.82;;;9.30;97.80;;;;;;6255858;22;20019;-92
2022/12/22 15:36:59;;;;;;;10.38;5.22;;;9.30;97.80;;;;;;6255936;22;20019;-89
2022/12/22 15:39:27;;;;;;;9.23;5.75;;;9.30;97.90;;;;;;6255165;22;20023;-91
2022/12/22 15:41:57;;;;;;;8.85;5.13;;;9.20;97.90;;;;;;6229737;22;20441;-87
2022/12/22 15:44:41;;;;;;;9.50;5.05;;;9.20;97.90;;;;;;6253816;22;20045;-88
2022/12/22 15:47:19;;;;;;;10.05;5.22;;;9.20;97.90;;;;;;6208221;22;20094;-82
2022/12/22 15:49:51;;;;;;;8.18;4.45;;;9.20;98.00;;;;;;6255878;22;20125;-95
2022/12/22 15:52:46;;;;;;;9.20;4.60;;;9.20;98.00;;;;;;6251884;22;20023;-87
2022/12/22 15:55:17;;;;;;;7.88;4.65;;;9.20;98.00;;;;;;6280308;22;20019;-84
2022/12/22 15:57:55;;;;;;;8.35;4.82;;;9.20;98.00;;;;;;6255479;22;20442;-87
2022/12/22 16:00:28;;;;;;;7.80;4.25;;;9.20;98.00;;;;;;6255039;22;20097;-87
2022/12/22 16:03:05;;;;;;;7.53;3.92;;;9.20;98.00;;;;;;6254131;22;20015;-88
2022/12/22 16:06:49;;;;;;;;;;;;;;;;;;;;;
2022/12/22 16:10:28;;;;;;;9.27;4.38;;;9.20;98.00;;;;;;6269818;22;20064;-88
2022/12/22 16:12:59;;;;;;;8.25;3.92;;;9.20;98.10;;;;;;6271845;22;20023;-89
2022/12/22 16:15:34;;;;;;;9.70;4.20;;;9.20;98.10;;;;;;6255096;22;20089;-89
2022/12/22 16:18:34;;;;;;;8.10;4.75;;;9.10;98.10;;;;;;6261304;22;20011;-85
2022/12/22 16:21:06;;;;;;;7.45;4.07;;;9.10;98.10;;;;;;6254355;22;20019;-90
2022/12/22 16:23:35;;;;;;;9.20;5.05;;;9.10;98.10;;;;;;6253659;22;20373;-84
2022/12/22 16:26:03;;;;;;;7.05;3.53;;;9.20;98.10;;;;;;6252863;22;20098;-84
2022/12/22 16:28:33;;;;;;;9.02;4.72;;;9.10;98.10;;;;;;6279902;22;20011;-89
2022/12/22 16:31:11;;;;;;;8.43;4.05;;;9.10;98.20;;;;;;6254655;22;20046;-88
2022/12/22 16:33:43;;;;;;;8.30;4.63;;;9.10;98.20;;;;;;6280383;22;20030;-89
2022/12/22 16:36:34;;;;;;;7.30;3.90;;;9.10;98.20;;;;;;6237574;22;20023;-90
2022/12/22 16:39:12;;;;;;;;;;;;;;;;;;;;;
2022/12/22 16:41:44;;;;;;;8.05;4.30;;;9.10;98.30;;;;;;6280483;22;20019;-88
2022/12/22 16:44:24;;;;;;;7.70;3.90;;;9.00;98.20;;;;;;6254374;22;20023;-88
2022/12/22 16:47:34;;;;;;;6.93;3.83;;;9.10;98.30;;;;;;6258360;22;20364;-87
2022/12/22 16:50:02;;;;;;;9.82;4.55;;;9.10;98.30;;;;;;6266340;22;20019;-85
2022/12/22 16:52:39;;;;;;;9.30;4.25;;;9.10;98.30;;;;;;6279833;22;20031;-88
2022/12/22 16:55:29;;;;;;;8.82;4.47;;;9.10;98.30;;;;;;6279884;22;20023;-85
2022/12/22 16:57:59;;;;;;;8.70;3.85;;;9.10;98.30;;;;;;6281523;22;20025;-90
2022/12/22 17:00:48;;;;;;;10.27;4.20;;;9.00;98.30;;;;;;6273176;22;20027;-88
2022/12/22 17:03:25;;;;;;;8.02;3.53;;;9.00;98.30;;;;;;6288196;22;20341;-86
2022/12/22 17:06:02;;;;;;;6.88;3.65;;;9.00;98.30;;;;;;6287884;22;20541;-87
2022/12/22 17:08:38;;;;;;;8.85;4.18;;;9.00;98.40;;;;;;6287485;22;20048;-89
2022/12/22 17:11:21;;;;;;;6.57;3.58;;;9.00;98.40;;;;;;6288334;22;20046;-88
2022/12/22 17:13:56;;;;;;;7.10;3.13;;;9.00;98.40;;;;;;6288112;22;20029;-89
2022/12/22 17:16:23;;;;;;;7.27;3.70;;;9.00;98.40;;;;;;6287158;22;20022;-87
2022/12/22 17:18:51;;;;;;;7.45;3.50;;;9.00;98.40;;;;;;6262428;22;20296;-84
2022/12/22 17:21:19;;;;;;;7.13;3.60;;;9.00;98.40;;;;;;6287040;22;20019;-87
2022/12/22 17:23:54;;;;;;;6.60;3.40;;;9.00;98.40;;;;;;6286998;22;20114;-87
2022/12/22 17:26:24;;;;;;;7.32;3.60;;;9.00;98.40;;;;;;6286832;22;20018;-85
2022/12/22 17:28:52;;;;;;;7.40;3.13;;;9.00;98.40;;;;;;6286283;22;20382;-87
2022/12/22 17:31:23;;;;;;;7.82;4.18;;;9.00;98.40;;;;;;6286420;22;20022;-90
2022/12/22 17:33:51;;;;;;;5.93;2.77;;;9.00;98.40;;;;;;6286920;22;20026;-87
2022/12/22 17:36:36;;;;;;;7.50;3.08;;;9.00;98.50;;;;;;6286128;22;20448;-84
2022/12/22 17:39:12;;;;;;;7.05;3.38;;;9.00;98.50;;;;;;6312789;22;20018;-85
2022/12/22 17:41:39;;;;;;;6.78;3.58;;;9.00;98.50;;;;;;6311849;22;20339;-86
2022/12/22 17:44:15;;;;;;;7.03;3.47;;;9.00;98.50;;;;;;6286778;22;20019;-84
2022/12/22 17:46:42;;;;;;;7.82;3.20;;;9.00;98.50;;;;;;6286512;22;20029;-87
2022/12/22 17:49:12;;;;;;;7.60;4.03;;;9.00;98.50;;;;;;6287141;22;20050;-87